Maybe — 2ASG3 — position and weather

sailwx.info

Track history (hours):
 
Tides and Currents Weather Stations Pressure Air Temp Water Temp Dewpoint Dewpoint Depression Visibility Wind Speed Wind Dir Waves Ship Positions

Maybe

Last reported at 2019-Aug-22 08:29 UTC. Time now 2019-Aug-22 08:52 UTC.
Position N 51°53' W 007°52'.

Length 28 m.

Type: Pleasure craft. MMSI: 235062552.

Date/timePositionNaut miles runAvg speedWind from/ knotsBaromVisibWave heightAir tempDewpointWater temp
2019-Aug-22 08:29N 51°53' W 007°52'0 0.0
2019-Aug-22 06:32N 51°53' W 007°52'0 0.0
2019-Aug-22 05:56N 51°53' W 007°52'0 0.0
2019-Aug-22 04:56N 51°53' W 007°52'0 0.0
2019-Aug-22 04:02N 51°53' W 007°52'0 0.0
2019-Aug-22 03:02N 51°53' W 007°52'0 0.0
2019-Aug-22 01:50N 51°53' W 007°52'0 0.0
2019-Aug-22 00:32N 51°53' W 007°52'0 0.0
2019-Aug-22 00:20N 51°53' W 007°52'0 0.0
2019-Aug-21 23:08N 51°53' W 007°52'0 0.0
2019-Aug-21 22:50N 51°53' W 007°52'0 0.0
2019-Aug-21 22:08N 51°53' W 007°52'0 0.0
2019-Aug-21 21:59N 51°53' W 007°52'0 0.0
2019-Aug-21 21:26N 51°53' W 007°52'0 0.0
2019-Aug-21 20:50N 51°53' W 007°52'0 0.0
2019-Aug-21 20:26N 51°53' W 007°52'0 0.0
2019-Aug-21 19:56N 51°53' W 007°52'0 0.0
2019-Aug-21 19:20N 51°53' W 007°52'0 0.2
2019-Aug-21 19:00N 51°53' W 007°52'2 3.3
2019-Aug-21 18:30N 51°54' W 007°50'5 5.2
2019-Aug-21 17:32N 51°53' W 007°42'0 2.7
2019-Aug-21 17:28N 51°53' W 007°42'  
2019-Aug-19 01:22N 52°09' W 006°19'2 4.8
2019-Aug-19 00:52N 52°11' W 006°17'2 5.2
2019-Aug-19 00:27N 52°13' W 006°17'3 5.6
2019-Aug-18 23:59N 52°15' W 006°19'2 3.2
2019-Aug-18 23:28N 52°16' W 006°22'0 0.0
2019-Aug-18 22:58N 52°16' W 006°22'0 0.0
2019-Aug-18 22:28N 52°16' W 006°22'0 0.0
2019-Aug-18 21:58N 52°16' W 006°22'0 0.0
2019-Aug-18 21:28N 52°16' W 006°22'0 0.0
2019-Aug-18 20:58N 52°16' W 006°22'0 0.0
2019-Aug-18 20:28N 52°16' W 006°22'0 0.0
2019-Aug-18 19:52N 52°16' W 006°22'0 0.0
2019-Aug-18 19:28N 52°16' W 006°22'0 0.0
2019-Aug-18 18:58N 52°16' W 006°22'0 0.0
2019-Aug-18 18:28N 52°16' W 006°22'0 0.0
2019-Aug-18 17:58N 52°16' W 006°22'0 0.0
2019-Aug-18 17:28N 52°16' W 006°22'0 0.0
2019-Aug-18 16:58N 52°16' W 006°22'0 0.0
2019-Aug-18 16:25N 52°16' W 006°22'0 0.0
2019-Aug-18 15:58N 52°16' W 006°22'0 0.0
2019-Aug-18 15:25N 52°16' W 006°22'0 0.0
2019-Aug-18 14:58N 52°16' W 006°22'0 0.0
2019-Aug-18 14:28N 52°16' W 006°22'0 0.0
2019-Aug-18 13:58N 52°16' W 006°22'0 0.0
2019-Aug-18 13:28N 52°16' W 006°22'0 0.0
2019-Aug-18 12:58N 52°16' W 006°22'0 0.0
2019-Aug-18 12:28N 52°16' W 006°22'0 0.0
2019-Aug-18 11:58N 52°16' W 006°22'0 0.0
2019-Aug-18 11:28N 52°16' W 006°22'0 0.0
2019-Aug-18 10:52N 52°16' W 006°22'0 0.0
2019-Aug-18 10:22N 52°16' W 006°22'0 0.0
2019-Aug-18 09:58N 52°16' W 006°22'0 0.0
2019-Aug-18 09:28N 52°16' W 006°22'0 0.0
2019-Aug-18 08:58N 52°16' W 006°22'0 0.0
2019-Aug-18 08:28N 52°16' W 006°22'0 0.0
2019-Aug-18 07:58N 52°16' W 006°22'0 0.0
2019-Aug-18 06:58N 52°16' W 006°22'0 0.0
2019-Aug-18 06:28N 52°16' W 006°22'0 0.0
2019-Aug-18 05:58N 52°16' W 006°22'0 0.0
2019-Aug-18 05:28N 52°16' W 006°22'0 0.0
2019-Aug-18 04:58N 52°16' W 006°22'0 0.0
2019-Aug-18 04:28N 52°16' W 006°22'0 0.0
2019-Aug-18 03:58N 52°16' W 006°22'0 0.0
2019-Aug-18 03:28N 52°16' W 006°22'0 0.0
2019-Aug-18 02:58N 52°16' W 006°22'0 0.0
2019-Aug-18 02:28N 52°16' W 006°22'0 0.0
2019-Aug-18 01:58N 52°16' W 006°22'0 0.0
2019-Aug-18 01:28N 52°16' W 006°22'0 0.0
2019-Aug-18 00:58N 52°16' W 006°22'0 0.0
2019-Aug-18 00:28N 52°16' W 006°22'0 0.0
2019-Aug-17 23:58N 52°16' W 006°22'0 0.0
2019-Aug-17 23:28N 52°16' W 006°22'0 0.0
2019-Aug-17 22:58N 52°16' W 006°22'0 0.0
2019-Aug-17 22:28N 52°16' W 006°22'0 0.0
2019-Aug-17 21:52N 52°16' W 006°22'0 0.0
2019-Aug-17 21:28N 52°16' W 006°22'0 0.0
2019-Aug-17 20:52N 52°16' W 006°22'0 0.0
2019-Aug-17 20:22N 52°16' W 006°22'0 0.0
2019-Aug-17 19:58N 52°16' W 006°22'0 0.0
2019-Aug-17 19:28N 52°16' W 006°22'0 0.0
2019-Aug-17 18:58N 52°16' W 006°22'0 0.0
2019-Aug-17 18:28N 52°16' W 006°22'0 0.0
2019-Aug-17 17:28N 52°16' W 006°22'0 0.0
2019-Aug-17 16:52N 52°16' W 006°22'0 0.0
2019-Aug-17 16:25N 52°16' W 006°22'0 0.0
2019-Aug-17 15:46N 52°16' W 006°22'0 0.0
2019-Aug-17 15:28N 52°16' W 006°22'0 0.0
2019-Aug-17 14:58N 52°16' W 006°22'0 0.0
2019-Aug-17 14:28N 52°16' W 006°22'0 0.0
2019-Aug-17 13:52N 52°16' W 006°22'0 0.1
2019-Aug-17 13:28N 52°16' W 006°22'0 0.1
2019-Aug-17 12:56N 52°16' W 006°22'0 0.1
2019-Aug-17 12:26N 52°16' W 006°22'0 0.3
2019-Aug-17 12:00N 52°16' W 006°22'1 0.9
2019-Aug-17 11:25N 52°15' W 006°21'0 0.0
2019-Aug-17 10:55N 52°15' W 006°21'0 0.0
2019-Aug-17 10:28N 52°15' W 006°21'0 0.0
2019-Aug-17 09:58N 52°15' W 006°21'0 0.0
2019-Aug-17 09:19N 52°15' W 006°21'0 0.0
2019-Aug-17 08:55N 52°15' W 006°21'0 0.0
2019-Aug-17 08:25N 52°15' W 006°21'0 0.0
2019-Aug-17 07:46N 52°15' W 006°21'0 0.0
2019-Aug-17 07:19N 52°15' W 006°21'0 0.0
2019-Aug-17 06:58N 52°15' W 006°21'0 0.0
2019-Aug-17 06:28N 52°15' W 006°21'0 0.0
2019-Aug-17 05:55N 52°15' W 006°21'0 0.0
2019-Aug-17 05:28N 52°15' W 006°21'0 0.0
2019-Aug-17 04:55N 52°15' W 006°21'0 0.0
2019-Aug-17 04:28N 52°15' W 006°21'0 0.0
2019-Aug-17 03:49N 52°15' W 006°21'0 0.0
2019-Aug-17 03:25N 52°15' W 006°21'0 0.0
2019-Aug-17 02:55N 52°15' W 006°21'0 0.0
2019-Aug-17 02:19N 52°15' W 006°21'0 0.0
2019-Aug-17 01:49N 52°15' W 006°21'0 0.0
2019-Aug-17 01:28N 52°15' W 006°21'0 0.0
2019-Aug-17 00:55N 52°15' W 006°21'0 0.0
2019-Aug-17 00:28N 52°15' W 006°21'0 0.0
2019-Aug-16 23:58N 52°15' W 006°21'0 0.0
2019-Aug-16 23:08N 52°15' W 006°21'0 0.0
2019-Aug-16 22:59N 52°15' W 006°21'0 0.0
2019-Aug-16 22:29N 52°15' W 006°21'0 0.0
2019-Aug-16 21:59N 52°15' W 006°21'0 0.0
2019-Aug-16 21:23N 52°15' W 006°21'0 0.0
2019-Aug-16 20:59N 52°15' W 006°21'0 0.0
2019-Aug-16 20:26N 52°15' W 006°21'0 0.3
2019-Aug-16 20:00N 52°15' W 006°21'2 2.9
2019-Aug-16 19:29N 52°15' W 006°18'6 3.5
2019-Aug-16 17:52N 52°10' W 006°16'2 4.6
2019-Aug-16 17:25N 52°11' W 006°19'3 2.2
2019-Aug-16 16:01N 52°11' W 006°14'0 4.6
2019-Aug-16 15:58N 52°11' W 006°14'3 5.5
2019-Aug-16 15:27N 52°14' W 006°16'3 5.9
2019-Aug-16 14:53N 52°15' W 006°21'0 0.2
2019-Aug-16 14:23N 52°15' W 006°21'0 0.0
2019-Aug-16 13:56N 52°15' W 006°21'0 0.0
2019-Aug-16 13:26N 52°15' W 006°21'0 0.0
2019-Aug-16 12:50N 52°15' W 006°21'0 0.0
2019-Aug-16 12:29N 52°15' W 006°21'0 0.0
2019-Aug-16 11:56N 52°15' W 006°21'0 0.0
2019-Aug-16 11:29N 52°15' W 006°21'0 0.0
2019-Aug-16 10:56N 52°15' W 006°21'0 0.0
2019-Aug-16 10:26N 52°15' W 006°21'0 0.0
2019-Aug-16 09:59N 52°15' W 006°21'0 0.0
2019-Aug-16 09:26N 52°15' W 006°21'1 3.4
2019-Aug-16 09:00N 52°17' W 006°21'0 0.9
2019-Aug-16 08:28N 52°17' W 006°21'0 0.0
2019-Aug-16 07:55N 52°17' W 006°21'0 0.0
2019-Aug-16 07:28N 52°17' W 006°21'0 0.2
2019-Aug-16 06:58N 52°17' W 006°21'0 0.0
2019-Aug-16 06:25N 52°17' W 006°21'0 0.0
2019-Aug-16 05:58N 52°17' W 006°21'0 0.0
2019-Aug-16 05:28N 52°17' W 006°21'0 0.1
2019-Aug-16 04:55N 52°17' W 006°21'0 0.2
2019-Aug-16 04:25N 52°17' W 006°21'0 0.0
2019-Aug-16 03:58N 52°17' W 006°21'0 0.0
2019-Aug-16 03:25N 52°17' W 006°21'0 0.0
2019-Aug-16 02:58N 52°17' W 006°21'0 0.0
2019-Aug-16 02:28N 52°17' W 006°21'0 0.0
2019-Aug-16 01:55N 52°17' W 006°21'0 0.1
2019-Aug-16 01:25N 52°17' W 006°21'0 0.0
2019-Aug-16 00:55N 52°17' W 006°21'1 1.2
2019-Aug-16 00:30N 52°17' W 006°21'3 5.5
2019-Aug-16 00:00N 52°17' W 006°16'3 6.1
2019-Aug-15 23:26N 52°17' W 006°10'2 4.1
2019-Aug-15 23:00N 52°19' W 006°10'37 3.5
2019-Aug-15 12:27N 52°56' W 005°58'4 7.9
2019-Aug-15 12:00N 52°59' W 005°58'4 8.0
2019-Aug-15 11:30N 53°03' W 005°59'17 1.1
2019-Aug-14 19:57N 53°19' W 006°07'2 3.6
2019-Aug-14 19:28N 53°21' W 006°09'  
Track history (hours):
 
Tides and Currents Weather Stations Pressure Air Temp Water Temp Dewpoint Dewpoint Depression Visibility Wind Speed Wind Dir Waves Ship Positions

Maybe

Last reported at 2019-Aug-22 08:29 UTC. Time now 2019-Aug-22 08:52 UTC.
Position N 51°53' W 007°52'.

Length 28 m.

Type: Pleasure craft. MMSI: 235062552.

Date/timePositionNaut miles runAvg speedWind from/ knotsBaromVisibWave heightAir tempDewpointWater temp
2019-Aug-22 08:29N 51°53' W 007°52'0 0.0
2019-Aug-22 06:32N 51°53' W 007°52'0 0.0
2019-Aug-22 05:56N 51°53' W 007°52'0 0.0
2019-Aug-22 04:56N 51°53' W 007°52'0 0.0
2019-Aug-22 04:02N 51°53' W 007°52'0 0.0
2019-Aug-22 03:02N 51°53' W 007°52'0 0.0
2019-Aug-22 01:50N 51°53' W 007°52'0 0.0
2019-Aug-22 00:32N 51°53' W 007°52'0 0.0
2019-Aug-22 00:20N 51°53' W 007°52'0 0.0
2019-Aug-21 23:08N 51°53' W 007°52'0 0.0
2019-Aug-21 22:50N 51°53' W 007°52'0 0.0
2019-Aug-21 22:08N 51°53' W 007°52'0 0.0
2019-Aug-21 21:59N 51°53' W 007°52'0 0.0
2019-Aug-21 21:26N 51°53' W 007°52'0 0.0
2019-Aug-21 20:50N 51°53' W 007°52'0 0.0
2019-Aug-21 20:26N 51°53' W 007°52'0 0.0
2019-Aug-21 19:56N 51°53' W 007°52'0 0.0
2019-Aug-21 19:20N 51°53' W 007°52'0 0.2
2019-Aug-21 19:00N 51°53' W 007°52'2 3.3
2019-Aug-21 18:30N 51°54' W 007°50'5 5.2
2019-Aug-21 17:32N 51°53' W 007°42'0 2.7
2019-Aug-21 17:28N 51°53' W 007°42'  
2019-Aug-19 01:22N 52°09' W 006°19'2 4.8
2019-Aug-19 00:52N 52°11' W 006°17'2 5.2
2019-Aug-19 00:27N 52°13' W 006°17'3 5.6
2019-Aug-18 23:59N 52°15' W 006°19'2 3.2
2019-Aug-18 23:28N 52°16' W 006°22'0 0.0
2019-Aug-18 22:58N 52°16' W 006°22'0 0.0
2019-Aug-18 22:28N 52°16' W 006°22'0 0.0
2019-Aug-18 21:58N 52°16' W 006°22'0 0.0
2019-Aug-18 21:28N 52°16' W 006°22'0 0.0
2019-Aug-18 20:58N 52°16' W 006°22'0 0.0
2019-Aug-18 20:28N 52°16' W 006°22'0 0.0
2019-Aug-18 19:52N 52°16' W 006°22'0 0.0
2019-Aug-18 19:28N 52°16' W 006°22'0 0.0
2019-Aug-18 18:58N 52°16' W 006°22'0 0.0
2019-Aug-18 18:28N 52°16' W 006°22'0 0.0
2019-Aug-18 17:58N 52°16' W 006°22'0 0.0
2019-Aug-18 17:28N 52°16' W 006°22'0 0.0
2019-Aug-18 16:58N 52°16' W 006°22'0 0.0
2019-Aug-18 16:25N 52°16' W 006°22'0 0.0
2019-Aug-18 15:58N 52°16' W 006°22'0 0.0
2019-Aug-18 15:25N 52°16' W 006°22'0 0.0
2019-Aug-18 14:58N 52°16' W 006°22'0 0.0
2019-Aug-18 14:28N 52°16' W 006°22'0 0.0
2019-Aug-18 13:58N 52°16' W 006°22'0 0.0
2019-Aug-18 13:28N 52°16' W 006°22'0 0.0
2019-Aug-18 12:58N 52°16' W 006°22'0 0.0
2019-Aug-18 12:28N 52°16' W 006°22'0 0.0
2019-Aug-18 11:58N 52°16' W 006°22'0 0.0
2019-Aug-18 11:28N 52°16' W 006°22'0 0.0
2019-Aug-18 10:52N 52°16' W 006°22'0 0.0
2019-Aug-18 10:22N 52°16' W 006°22'0 0.0
2019-Aug-18 09:58N 52°16' W 006°22'0 0.0
2019-Aug-18 09:28N 52°16' W 006°22'0 0.0
2019-Aug-18 08:58N 52°16' W 006°22'0 0.0
2019-Aug-18 08:28N 52°16' W 006°22'0 0.0
2019-Aug-18 07:58N 52°16' W 006°22'0 0.0
2019-Aug-18 06:58N 52°16' W 006°22'0 0.0
2019-Aug-18 06:28N 52°16' W 006°22'0 0.0
2019-Aug-18 05:58N 52°16' W 006°22'0 0.0
2019-Aug-18 05:28N 52°16' W 006°22'0 0.0
2019-Aug-18 04:58N 52°16' W 006°22'0 0.0
2019-Aug-18 04:28N 52°16' W 006°22'0 0.0
2019-Aug-18 03:58N 52°16' W 006°22'0 0.0
2019-Aug-18 03:28N 52°16' W 006°22'0 0.0
2019-Aug-18 02:58N 52°16' W 006°22'0 0.0
2019-Aug-18 02:28N 52°16' W 006°22'0 0.0
2019-Aug-18 01:58N 52°16' W 006°22'0 0.0
2019-Aug-18 01:28N 52°16' W 006°22'0 0.0
2019-Aug-18 00:58N 52°16' W 006°22'0 0.0
2019-Aug-18 00:28N 52°16' W 006°22'0 0.0
2019-Aug-17 23:58N 52°16' W 006°22'0 0.0
2019-Aug-17 23:28N 52°16' W 006°22'0 0.0
2019-Aug-17 22:58N 52°16' W 006°22'0 0.0
2019-Aug-17 22:28N 52°16' W 006°22'0 0.0
2019-Aug-17 21:52N 52°16' W 006°22'0 0.0
2019-Aug-17 21:28N 52°16' W 006°22'0 0.0
2019-Aug-17 20:52N 52°16' W 006°22'0 0.0
2019-Aug-17 20:22N 52°16' W 006°22'0 0.0
2019-Aug-17 19:58N 52°16' W 006°22'0 0.0
2019-Aug-17 19:28N 52°16' W 006°22'0 0.0
2019-Aug-17 18:58N 52°16' W 006°22'0 0.0
2019-Aug-17 18:28N 52°16' W 006°22'0 0.0
2019-Aug-17 17:28N 52°16' W 006°22'0 0.0
2019-Aug-17 16:52N 52°16' W 006°22'0 0.0
2019-Aug-17 16:25N 52°16' W 006°22'0 0.0
2019-Aug-17 15:46N 52°16' W 006°22'0 0.0
2019-Aug-17 15:28N 52°16' W 006°22'0 0.0
2019-Aug-17 14:58N 52°16' W 006°22'0 0.0
2019-Aug-17 14:28N 52°16' W 006°22'0 0.0
2019-Aug-17 13:52N 52°16' W 006°22'0 0.1
2019-Aug-17 13:28N 52°16' W 006°22'0 0.1
2019-Aug-17 12:56N 52°16' W 006°22'0 0.1
2019-Aug-17 12:26N 52°16' W 006°22'0 0.3
2019-Aug-17 12:00N 52°16' W 006°22'1 0.9
2019-Aug-17 11:25N 52°15' W 006°21'0 0.0
2019-Aug-17 10:55N 52°15' W 006°21'0 0.0
2019-Aug-17 10:28N 52°15' W 006°21'0 0.0
2019-Aug-17 09:58N 52°15' W 006°21'0 0.0
2019-Aug-17 09:19N 52°15' W 006°21'0 0.0
2019-Aug-17 08:55N 52°15' W 006°21'0 0.0
2019-Aug-17 08:25N 52°15' W 006°21'0 0.0
2019-Aug-17 07:46N 52°15' W 006°21'0 0.0
2019-Aug-17 07:19N 52°15' W 006°21'0 0.0
2019-Aug-17 06:58N 52°15' W 006°21'0 0.0
2019-Aug-17 06:28N 52°15' W 006°21'0 0.0
2019-Aug-17 05:55N 52°15' W 006°21'0 0.0
2019-Aug-17 05:28N 52°15' W 006°21'0 0.0
2019-Aug-17 04:55N 52°15' W 006°21'0 0.0
2019-Aug-17 04:28N 52°15' W 006°21'0 0.0
2019-Aug-17 03:49N 52°15' W 006°21'0 0.0
2019-Aug-17 03:25N 52°15' W 006°21'0 0.0
2019-Aug-17 02:55N 52°15' W 006°21'0 0.0
2019-Aug-17 02:19N 52°15' W 006°21'0 0.0
2019-Aug-17 01:49N 52°15' W 006°21'0 0.0
2019-Aug-17 01:28N 52°15' W 006°21'0 0.0
2019-Aug-17 00:55N 52°15' W 006°21'0 0.0
2019-Aug-17 00:28N 52°15' W 006°21'0 0.0
2019-Aug-16 23:58N 52°15' W 006°21'0 0.0
2019-Aug-16 23:08N 52°15' W 006°21'0 0.0
2019-Aug-16 22:59N 52°15' W 006°21'0 0.0
2019-Aug-16 22:29N 52°15' W 006°21'0 0.0
2019-Aug-16 21:59N 52°15' W 006°21'0 0.0
2019-Aug-16 21:23N 52°15' W 006°21'0 0.0
2019-Aug-16 20:59N 52°15' W 006°21'0 0.0
2019-Aug-16 20:26N 52°15' W 006°21'0 0.3
2019-Aug-16 20:00N 52°15' W 006°21'2 2.9
2019-Aug-16 19:29N 52°15' W 006°18'6 3.5
2019-Aug-16 17:52N 52°10' W 006°16'2 4.6
2019-Aug-16 17:25N 52°11' W 006°19'3 2.2
2019-Aug-16 16:01N 52°11' W 006°14'0 4.6
2019-Aug-16 15:58N 52°11' W 006°14'3 5.5
2019-Aug-16 15:27N 52°14' W 006°16'3 5.9
2019-Aug-16 14:53N 52°15' W 006°21'0 0.2
2019-Aug-16 14:23N 52°15' W 006°21'0 0.0
2019-Aug-16 13:56N 52°15' W 006°21'0 0.0
2019-Aug-16 13:26N 52°15' W 006°21'0 0.0
2019-Aug-16 12:50N 52°15' W 006°21'0 0.0
2019-Aug-16 12:29N 52°15' W 006°21'0 0.0
2019-Aug-16 11:56N 52°15' W 006°21'0 0.0
2019-Aug-16 11:29N 52°15' W 006°21'0 0.0
2019-Aug-16 10:56N 52°15' W 006°21'0 0.0
2019-Aug-16 10:26N 52°15' W 006°21'0 0.0
2019-Aug-16 09:59N 52°15' W 006°21'0 0.0
2019-Aug-16 09:26N 52°15' W 006°21'1 3.4
2019-Aug-16 09:00N 52°17' W 006°21'0 0.9
2019-Aug-16 08:28N 52°17' W 006°21'0 0.0
2019-Aug-16 07:55N 52°17' W 006°21'0 0.0
2019-Aug-16 07:28N 52°17' W 006°21'0 0.2
2019-Aug-16 06:58N 52°17' W 006°21'0 0.0
2019-Aug-16 06:25N 52°17' W 006°21'0 0.0
2019-Aug-16 05:58N 52°17' W 006°21'0 0.0
2019-Aug-16 05:28N 52°17' W 006°21'0 0.1
2019-Aug-16 04:55N 52°17' W 006°21'0 0.2
2019-Aug-16 04:25N 52°17' W 006°21'0 0.0
2019-Aug-16 03:58N 52°17' W 006°21'0 0.0
2019-Aug-16 03:25N 52°17' W 006°21'0 0.0
2019-Aug-16 02:58N 52°17' W 006°21'0 0.0
2019-Aug-16 02:28N 52°17' W 006°21'0 0.0
2019-Aug-16 01:55N 52°17' W 006°21'0 0.1
2019-Aug-16 01:25N 52°17' W 006°21'0 0.0
2019-Aug-16 00:55N 52°17' W 006°21'1 1.2
2019-Aug-16 00:30N 52°17' W 006°21'3 5.5
2019-Aug-16 00:00N 52°17' W 006°16'3 6.1
2019-Aug-15 23:26N 52°17' W 006°10'2 4.1
2019-Aug-15 23:00N 52°19' W 006°10'37 3.5
2019-Aug-15 12:27N 52°56' W 005°58'4 7.9
2019-Aug-15 12:00N 52°59' W 005°58'4 8.0
2019-Aug-15 11:30N 53°03' W 005°59'17 1.1
2019-Aug-14 19:57N 53°19' W 006°07'2 3.6
2019-Aug-14 19:28N 53°21' W 006°09'  

Dump ship's entire track history